sensor_id;sensor_type;location;lat;lon;timestamp;P1;durP1;ratioP1;P2;durP2;ratioP2
13834;SDS011;6988;52.614;13.500;2023-06-14T00:01:08;3.30;;;2.17;;
13834;SDS011;6988;52.614;13.500;2023-06-14T00:05:59;3.90;;;1.90;;
13834;SDS011;6988;52.614;13.500;2023-06-14T00:10:51;4.13;;;1.97;;
13834;SDS011;6988;52.614;13.500;2023-06-14T00:15:43;2.93;;;2.13;;
13834;SDS011;6988;52.614;13.500;2023-06-14T00:20:37;4.63;;;1.90;;
13834;SDS011;6988;52.614;13.500;2023-06-14T00:25:32;2.80;;;2.03;;
13834;SDS011;6988;52.614;13.500;2023-06-14T00:30:24;3.83;;;2.10;;
13834;SDS011;6988;52.614;13.500;2023-06-14T00:35:20;2.90;;;2.43;;
13834;SDS011;6988;52.614;13.500;2023-06-14T00:40:13;6.37;;;2.67;;
13834;SDS011;6988;52.614;13.500;2023-06-14T00:45:05;2.60;;;2.40;;
13834;SDS011;6988;52.614;13.500;2023-06-14T00:49:58;2.60;;;2.37;;
13834;SDS011;6988;52.614;13.500;2023-06-14T00:54:53;3.10;;;2.40;;
13834;SDS011;6988;52.614;13.500;2023-06-14T00:59:47;3.30;;;2.23;;
13834;SDS011;6988;52.614;13.500;2023-06-14T01:04:40;3.23;;;2.60;;
13834;SDS011;6988;52.614;13.500;2023-06-14T01:09:42;4.57;;;2.57;;
13834;SDS011;6988;52.614;13.500;2023-06-14T01:14:42;4.57;;;3.07;;
13834;SDS011;6988;52.614;13.500;2023-06-14T01:19:38;3.40;;;2.50;;
13834;SDS011;6988;52.614;13.500;2023-06-14T01:24:34;5.27;;;2.90;;
13834;SDS011;6988;52.614;13.500;2023-06-14T01:29:26;8.03;;;2.97;;
13834;SDS011;6988;52.614;13.500;2023-06-14T01:34:22;4.17;;;3.00;;
13834;SDS011;6988;52.614;13.500;2023-06-14T01:39:15;3.40;;;2.87;;
13834;SDS011;6988;52.614;13.500;2023-06-14T01:44:10;3.97;;;3.57;;
13834;SDS011;6988;52.614;13.500;2023-06-14T01:49:08;3.90;;;3.50;;
13834;SDS011;6988;52.614;13.500;2023-06-14T01:54:00;4.63;;;3.30;;
13834;SDS011;6988;52.614;13.500;2023-06-14T01:58:52;5.80;;;3.80;;
13834;SDS011;6988;52.614;13.500;2023-06-14T02:03:45;4.07;;;3.60;;
13834;SDS011;6988;52.614;13.500;2023-06-14T02:08:40;5.63;;;3.60;;
13834;SDS011;6988;52.614;13.500;2023-06-14T02:13:32;5.13;;;4.00;;
13834;SDS011;6988;52.614;13.500;2023-06-14T02:18:24;6.60;;;4.33;;
13834;SDS011;6988;52.614;13.500;2023-06-14T02:23:17;4.57;;;3.80;;
13834;SDS011;6988;52.614;13.500;2023-06-14T02:28:09;6.23;;;3.80;;
13834;SDS011;6988;52.614;13.500;2023-06-14T02:33:03;6.50;;;3.70;;
13834;SDS011;6988;52.614;13.500;2023-06-14T02:37:56;6.17;;;4.00;;
13834;SDS011;6988;52.614;13.500;2023-06-14T02:42:50;5.10;;;4.30;;
13834;SDS011;6988;52.614;13.500;2023-06-14T02:47:41;4.60;;;4.07;;
13834;SDS011;6988;52.614;13.500;2023-06-14T02:52:36;5.70;;;3.77;;
13834;SDS011;6988;52.614;13.500;2023-06-14T02:57:28;5.63;;;3.93;;
13834;SDS011;6988;52.614;13.500;2023-06-14T03:02:22;8.57;;;3.83;;
13834;SDS011;6988;52.614;13.500;2023-06-14T03:07:14;4.50;;;3.73;;
13834;SDS011;6988;52.614;13.500;2023-06-14T03:12:12;5.73;;;4.10;;
13834;SDS011;6988;52.614;13.500;2023-06-14T03:17:05;4.37;;;3.87;;
13834;SDS011;6988;52.614;13.500;2023-06-14T03:22:00;5.00;;;3.93;;
13834;SDS011;6988;52.614;13.500;2023-06-14T03:26:55;4.63;;;4.10;;
13834;SDS011;6988;52.614;13.500;2023-06-14T03:31:58;6.07;;;4.10;;
13834;SDS011;6988;52.614;13.500;2023-06-14T03:37:00;7.53;;;4.20;;
13834;SDS011;6988;52.614;13.500;2023-06-14T03:41:53;7.57;;;4.63;;
13834;SDS011;6988;52.614;13.500;2023-06-14T03:46:46;8.13;;;4.63;;
13834;SDS011;6988;52.614;13.500;2023-06-14T03:51:39;6.70;;;4.40;;
13834;SDS011;6988;52.614;13.500;2023-06-14T03:56:33;7.20;;;4.60;;
13834;SDS011;6988;52.614;13.500;2023-06-14T04:01:26;5.50;;;4.73;;
13834;SDS011;6988;52.614;13.500;2023-06-14T04:06:22;6.40;;;4.70;;
13834;SDS011;6988;52.614;13.500;2023-06-14T04:11:22;9.00;;;5.20;;
13834;SDS011;6988;52.614;13.500;2023-06-14T04:16:18;5.37;;;4.87;;
13834;SDS011;6988;52.614;13.500;2023-06-14T04:21:10;7.53;;;5.53;;
13834;SDS011;6988;52.614;13.500;2023-06-14T04:26:01;7.47;;;5.77;;
13834;SDS011;6988;52.614;13.500;2023-06-14T04:30:54;9.57;;;5.87;;
13834;SDS011;6988;52.614;13.500;2023-06-14T04:35:48;6.57;;;5.17;;
13834;SDS011;6988;52.614;13.500;2023-06-14T04:40:44;7.53;;;5.30;;
13834;SDS011;6988;52.614;13.500;2023-06-14T04:45:40;7.00;;;5.93;;
13834;SDS011;6988;52.614;13.500;2023-06-14T04:50:35;8.70;;;5.50;;
13834;SDS011;6988;52.614;13.500;2023-06-14T04:55:29;6.37;;;5.00;;
13834;SDS011;6988;52.614;13.500;2023-06-14T05:00:23;6.47;;;5.17;;
13834;SDS011;6988;52.614;13.500;2023-06-14T05:05:15;6.87;;;5.40;;
13834;SDS011;6988;52.614;13.500;2023-06-14T05:10:08;6.63;;;5.27;;
13834;SDS011;6988;52.614;13.500;2023-06-14T05:15:02;7.97;;;5.10;;
13834;SDS011;6988;52.614;13.500;2023-06-14T05:19:54;8.07;;;5.00;;
13834;SDS011;6988;52.614;13.500;2023-06-14T05:24:47;6.20;;;4.50;;
13834;SDS011;6988;52.614;13.500;2023-06-14T05:29:39;5.87;;;4.80;;
13834;SDS011;6988;52.614;13.500;2023-06-14T05:34:33;7.30;;;4.90;;
13834;SDS011;6988;52.614;13.500;2023-06-14T05:39:25;6.20;;;4.40;;
13834;SDS011;6988;52.614;13.500;2023-06-14T05:44:17;5.87;;;4.90;;
13834;SDS011;6988;52.614;13.500;2023-06-14T05:49:09;6.33;;;4.50;;
13834;SDS011;6988;52.614;13.500;2023-06-14T05:54:03;6.17;;;4.77;;
13834;SDS011;6988;52.614;13.500;2023-06-14T05:58:55;6.20;;;4.63;;
13834;SDS011;6988;52.614;13.500;2023-06-14T06:03:47;10.23;;;5.20;;
13834;SDS011;6988;52.614;13.500;2023-06-14T06:08:39;7.57;;;4.90;;
13834;SDS011;6988;52.614;13.500;2023-06-14T06:13:32;5.13;;;3.97;;
13834;SDS011;6988;52.614;13.500;2023-06-14T06:18:25;6.83;;;4.60;;
13834;SDS011;6988;52.614;13.500;2023-06-14T06:23:17;6.80;;;4.40;;
13834;SDS011;6988;52.614;13.500;2023-06-14T06:28:08;7.50;;;4.40;;
13834;SDS011;6988;52.614;13.500;2023-06-14T06:33:02;7.07;;;5.03;;
13834;SDS011;6988;52.614;13.500;2023-06-14T06:37:54;11.57;;;4.50;;
13834;SDS011;6988;52.614;13.500;2023-06-14T06:42:46;5.63;;;3.93;;
13834;SDS011;6988;52.614;13.500;2023-06-14T06:47:42;6.60;;;4.63;;
13834;SDS011;6988;52.614;13.500;2023-06-14T06:52:35;7.53;;;4.23;;
13834;SDS011;6988;52.614;13.500;2023-06-14T06:57:27;6.57;;;4.23;;
13834;SDS011;6988;52.614;13.500;2023-06-14T07:02:19;5.27;;;3.90;;
13834;SDS011;6988;52.614;13.500;2023-06-14T07:07:11;8.17;;;4.33;;
13834;SDS011;6988;52.614;13.500;2023-06-14T07:12:04;6.43;;;4.47;;
13834;SDS011;6988;52.614;13.500;2023-06-14T07:16:58;9.67;;;4.60;;
13834;SDS011;6988;52.614;13.500;2023-06-14T07:21:50;7.43;;;4.13;;
13834;SDS011;6988;52.614;13.500;2023-06-14T07:26:43;7.00;;;4.43;;
13834;SDS011;6988;52.614;13.500;2023-06-14T07:31:36;9.93;;;4.20;;
13834;SDS011;6988;52.614;13.500;2023-06-14T07:36:28;7.83;;;4.00;;
13834;SDS011;6988;52.614;13.500;2023-06-14T07:41:21;10.07;;;4.37;;
13834;SDS011;6988;52.614;13.500;2023-06-14T07:46:14;8.70;;;4.67;;
13834;SDS011;6988;52.614;13.500;2023-06-14T07:51:07;7.30;;;4.20;;
13834;SDS011;6988;52.614;13.500;2023-06-14T07:55:59;7.80;;;4.23;;
13834;SDS011;6988;52.614;13.500;2023-06-14T08:00:52;6.60;;;4.53;;
13834;SDS011;6988;52.614;13.500;2023-06-14T08:05:44;5.97;;;3.70;;
13834;SDS011;6988;52.614;13.500;2023-06-14T08:10:38;5.80;;;3.97;;
13834;SDS011;6988;52.614;13.500;2023-06-14T08:15:29;5.37;;;4.07;;
13834;SDS011;6988;52.614;13.500;2023-06-14T08:20:22;7.87;;;3.67;;
13834;SDS011;6988;52.614;13.500;2023-06-14T08:25:14;4.83;;;2.93;;
13834;SDS011;6988;52.614;13.500;2023-06-14T08:30:08;8.30;;;3.37;;
13834;SDS011;6988;52.614;13.500;2023-06-14T08:35:02;5.17;;;3.40;;
13834;SDS011;6988;52.614;13.500;2023-06-14T08:39:55;5.47;;;3.45;;
13834;SDS011;6988;52.614;13.500;2023-06-14T08:44:47;8.60;;;3.63;;
13834;SDS011;6988;52.614;13.500;2023-06-14T08:49:41;5.73;;;3.40;;
13834;SDS011;6988;52.614;13.500;2023-06-14T08:54:37;7.77;;;3.43;;
13834;SDS011;6988;52.614;13.500;2023-06-14T08:59:33;6.10;;;3.70;;
13834;SDS011;6988;52.614;13.500;2023-06-14T09:04:29;8.20;;;3.92;;
13834;SDS011;6988;52.614;13.500;2023-06-14T09:09:23;6.53;;;3.27;;
13834;SDS011;6988;52.614;13.500;2023-06-14T09:14:17;4.95;;;3.30;;
13834;SDS011;6988;52.614;13.500;2023-06-14T09:19:10;6.20;;;3.17;;
13834;SDS011;6988;52.614;13.500;2023-06-14T09:24:13;5.75;;;3.40;;
13834;SDS011;6988;52.614;13.500;2023-06-14T09:29:06;9.57;;;3.70;;
13834;SDS011;6988;52.614;13.500;2023-06-14T09:34:01;5.33;;;3.50;;
13834;SDS011;6988;52.614;13.500;2023-06-14T09:38:54;4.40;;;3.60;;
13834;SDS011;6988;52.614;13.500;2023-06-14T09:43:48;4.53;;;3.20;;
13834;SDS011;6988;52.614;13.500;2023-06-14T09:48:42;6.43;;;3.63;;
13834;SDS011;6988;52.614;13.500;2023-06-14T09:53:35;7.65;;;3.20;;
13834;SDS011;6988;52.614;13.500;2023-06-14T09:58:28;5.95;;;3.25;;
13834;SDS011;6988;52.614;13.500;2023-06-14T10:03:25;5.35;;;3.60;;
13834;SDS011;6988;52.614;13.500;2023-06-14T10:08:23;7.75;;;3.78;;
13834;SDS011;6988;52.614;13.500;2023-06-14T10:13:18;8.73;;;3.53;;
13834;SDS011;6988;52.614;13.500;2023-06-14T10:18:16;7.80;;;3.27;;
13834;SDS011;6988;52.614;13.500;2023-06-14T10:23:18;5.40;;;3.60;;
13834;SDS011;6988;52.614;13.500;2023-06-14T10:28:17;5.53;;;3.63;;
13834;SDS011;6988;52.614;13.500;2023-06-14T10:33:12;6.40;;;3.25;;
13834;SDS011;6988;52.614;13.500;2023-06-14T10:38:07;7.78;;;3.70;;
13834;SDS011;6988;52.614;13.500;2023-06-14T10:43:01;5.30;;;3.63;;
13834;SDS011;6988;52.614;13.500;2023-06-14T10:48:21;7.88;;;3.45;;
13834;SDS011;6988;52.614;13.500;2023-06-14T10:53:21;6.72;;;3.20;;
13834;SDS011;6988;52.614;13.500;2023-06-14T10:58:16;6.63;;;3.55;;
13834;SDS011;6988;52.614;13.500;2023-06-14T11:08:51;5.53;;;3.45;;
13834;SDS011;6988;52.614;13.500;2023-06-14T11:14:14;7.65;;;3.28;;
13834;SDS011;6988;52.614;13.500;2023-06-14T11:19:06;7.28;;;3.15;;
13834;SDS011;6988;52.614;13.500;2023-06-14T11:23:59;9.27;;;3.25;;
13834;SDS011;6988;52.614;13.500;2023-06-14T11:28:51;7.13;;;3.53;;
13834;SDS011;6988;52.614;13.500;2023-06-14T11:33:50;5.18;;;3.00;;
13834;SDS011;6988;52.614;13.500;2023-06-14T11:38:44;5.63;;;3.08;;
13834;SDS011;6988;52.614;13.500;2023-06-14T11:43:37;5.40;;;3.33;;
13834;SDS011;6988;52.614;13.500;2023-06-14T11:48:38;4.72;;;3.00;;
13834;SDS011;6988;52.614;13.500;2023-06-14T11:53:33;7.00;;;2.95;;
13834;SDS011;6988;52.614;13.500;2023-06-14T11:58:26;9.25;;;3.17;;
13834;SDS011;6988;52.614;13.500;2023-06-14T12:03:19;8.65;;;3.50;;
13834;SDS011;6988;52.614;13.500;2023-06-14T12:08:14;7.95;;;3.22;;
13834;SDS011;6988;52.614;13.500;2023-06-14T12:13:10;5.65;;;3.00;;
13834;SDS011;6988;52.614;13.500;2023-06-14T12:18:04;6.88;;;3.45;;
13834;SDS011;6988;52.614;13.500;2023-06-14T12:22:58;5.70;;;3.20;;
13834;SDS011;6988;52.614;13.500;2023-06-14T12:27:53;5.95;;;2.95;;
13834;SDS011;6988;52.614;13.500;2023-06-14T12:32:47;5.22;;;3.40;;
13834;SDS011;6988;52.614;13.500;2023-06-14T12:37:41;5.45;;;2.80;;
13834;SDS011;6988;52.614;13.500;2023-06-14T12:42:33;6.53;;;2.90;;
13834;SDS011;6988;52.614;13.500;2023-06-14T12:47:26;5.32;;;3.00;;
13834;SDS011;6988;52.614;13.500;2023-06-14T12:52:19;5.30;;;3.10;;
13834;SDS011;6988;52.614;13.500;2023-06-14T12:57:11;6.70;;;2.72;;
13834;SDS011;6988;52.614;13.500;2023-06-14T13:02:15;5.97;;;2.88;;
13834;SDS011;6988;52.614;13.500;2023-06-14T13:07:09;6.32;;;3.30;;
13834;SDS011;6988;52.614;13.500;2023-06-14T13:12:03;7.85;;;2.55;;
13834;SDS011;6988;52.614;13.500;2023-06-14T13:16:55;4.68;;;2.70;;
13834;SDS011;6988;52.614;13.500;2023-06-14T13:21:47;4.53;;;2.47;;
13834;SDS011;6988;52.614;13.500;2023-06-14T13:26:40;5.45;;;2.47;;
13834;SDS011;6988;52.614;13.500;2023-06-14T13:31:33;7.18;;;2.50;;
13834;SDS011;6988;52.614;13.500;2023-06-14T13:36:25;5.78;;;2.60;;
13834;SDS011;6988;52.614;13.500;2023-06-14T13:41:17;7.68;;;3.03;;
13834;SDS011;6988;52.614;13.500;2023-06-14T13:46:09;5.47;;;2.42;;
13834;SDS011;6988;52.614;13.500;2023-06-14T13:51:02;6.70;;;2.35;;
13834;SDS011;6988;52.614;13.500;2023-06-14T13:55:54;6.10;;;2.40;;
13834;SDS011;6988;52.614;13.500;2023-06-14T14:00:47;5.10;;;2.80;;
13834;SDS011;6988;52.614;13.500;2023-06-14T14:05:38;6.50;;;3.33;;
13834;SDS011;6988;52.614;13.500;2023-06-14T14:10:31;5.95;;;3.20;;
13834;SDS011;6988;52.614;13.500;2023-06-14T14:15:24;5.70;;;2.75;;
13834;SDS011;6988;52.614;13.500;2023-06-14T14:20:15;6.32;;;3.05;;
13834;SDS011;6988;52.614;13.500;2023-06-14T14:25:07;8.23;;;3.17;;
13834;SDS011;6988;52.614;13.500;2023-06-14T14:30:02;10.10;;;3.10;;
13834;SDS011;6988;52.614;13.500;2023-06-14T14:34:54;5.22;;;2.97;;
13834;SDS011;6988;52.614;13.500;2023-06-14T14:39:48;6.63;;;2.60;;
13834;SDS011;6988;52.614;13.500;2023-06-14T14:44:41;6.03;;;2.67;;
13834;SDS011;6988;52.614;13.500;2023-06-14T14:49:35;4.85;;;2.72;;
13834;SDS011;6988;52.614;13.500;2023-06-14T14:54:27;3.90;;;2.40;;
13834;SDS011;6988;52.614;13.500;2023-06-14T14:59:19;3.65;;;2.75;;
13834;SDS011;6988;52.614;13.500;2023-06-14T15:04:14;4.45;;;2.45;;
13834;SDS011;6988;52.614;13.500;2023-06-14T15:09:08;8.05;;;3.25;;
13834;SDS011;6988;52.614;13.500;2023-06-14T15:13:59;7.32;;;2.78;;
13834;SDS011;6988;52.614;13.500;2023-06-14T15:18:51;8.05;;;2.80;;
13834;SDS011;6988;52.614;13.500;2023-06-14T15:23:43;6.20;;;2.42;;
13834;SDS011;6988;52.614;13.500;2023-06-14T15:28:36;6.07;;;2.83;;
13834;SDS011;6988;52.614;13.500;2023-06-14T15:33:28;5.45;;;2.65;;
13834;SDS011;6988;52.614;13.500;2023-06-14T15:38:20;4.35;;;2.67;;
13834;SDS011;6988;52.614;13.500;2023-06-14T15:43:12;6.65;;;2.33;;
13834;SDS011;6988;52.614;13.500;2023-06-14T15:48:06;3.75;;;2.60;;
13834;SDS011;6988;52.614;13.500;2023-06-14T15:52:58;5.45;;;2.90;;
13834;SDS011;6988;52.614;13.500;2023-06-14T15:57:50;6.50;;;2.75;;
13834;SDS011;6988;52.614;13.500;2023-06-14T16:02:41;5.57;;;2.72;;
13834;SDS011;6988;52.614;13.500;2023-06-14T16:07:35;5.70;;;2.88;;
13834;SDS011;6988;52.614;13.500;2023-06-14T16:12:26;3.50;;;2.78;;
13834;SDS011;6988;52.614;13.500;2023-06-14T16:17:18;6.43;;;2.75;;
13834;SDS011;6988;52.614;13.500;2023-06-14T16:22:10;4.93;;;3.05;;
13834;SDS011;6988;52.614;13.500;2023-06-14T16:27:03;4.60;;;2.90;;
13834;SDS011;6988;52.614;13.500;2023-06-14T16:31:58;5.38;;;3.25;;
13834;SDS011;6988;52.614;13.500;2023-06-14T16:36:50;6.82;;;2.90;;
13834;SDS011;6988;52.614;13.500;2023-06-14T16:41:42;5.63;;;2.83;;
13834;SDS011;6988;52.614;13.500;2023-06-14T16:46:35;9.38;;;2.92;;
13834;SDS011;6988;52.614;13.500;2023-06-14T16:51:27;7.82;;;3.00;;
13834;SDS011;6988;52.614;13.500;2023-06-14T16:56:19;7.10;;;3.05;;
13834;SDS011;6988;52.614;13.500;2023-06-14T17:01:11;5.95;;;3.40;;
13834;SDS011;6988;52.614;13.500;2023-06-14T17:06:05;4.75;;;2.67;;
13834;SDS011;6988;52.614;13.500;2023-06-14T17:10:57;6.50;;;2.80;;
13834;SDS011;6988;52.614;13.500;2023-06-14T17:15:49;6.53;;;2.97;;
13834;SDS011;6988;52.614;13.500;2023-06-14T17:20:41;7.40;;;2.75;;
13834;SDS011;6988;52.614;13.500;2023-06-14T17:25:34;5.00;;;2.55;;
13834;SDS011;6988;52.614;13.500;2023-06-14T17:30:26;6.65;;;2.85;;
13834;SDS011;6988;52.614;13.500;2023-06-14T17:35:18;9.27;;;3.38;;
13834;SDS011;6988;52.614;13.500;2023-06-14T17:40:10;5.03;;;3.00;;
13834;SDS011;6988;52.614;13.500;2023-06-14T17:45:04;6.20;;;3.53;;
13834;SDS011;6988;52.614;13.500;2023-06-14T17:49:58;7.20;;;2.92;;
13834;SDS011;6988;52.614;13.500;2023-06-14T17:54:52;6.53;;;3.00;;
13834;SDS011;6988;52.614;13.500;2023-06-14T17:59:44;5.87;;;2.83;;
13834;SDS011;6988;52.614;13.500;2023-06-14T18:04:38;4.68;;;3.10;;
13834;SDS011;6988;52.614;13.500;2023-06-14T18:09:29;4.47;;;3.10;;
13834;SDS011;6988;52.614;13.500;2023-06-14T18:14:21;6.70;;;3.50;;
13834;SDS011;6988;52.614;13.500;2023-06-14T18:19:13;4.87;;;2.67;;
13834;SDS011;6988;52.614;13.500;2023-06-14T18:24:08;7.70;;;3.00;;
13834;SDS011;6988;52.614;13.500;2023-06-14T18:29:03;5.23;;;3.00;;
13834;SDS011;6988;52.614;13.500;2023-06-14T18:33:55;4.43;;;3.20;;
13834;SDS011;6988;52.614;13.500;2023-06-14T18:38:46;6.37;;;3.10;;
13834;SDS011;6988;52.614;13.500;2023-06-14T18:43:40;7.57;;;2.60;;
13834;SDS011;6988;52.614;13.500;2023-06-14T18:48:31;4.20;;;2.57;;
13834;SDS011;6988;52.614;13.500;2023-06-14T18:53:23;5.87;;;3.17;;
13834;SDS011;6988;52.614;13.500;2023-06-14T18:58:16;7.03;;;3.03;;
13834;SDS011;6988;52.614;13.500;2023-06-14T19:03:09;4.87;;;3.03;;
13834;SDS011;6988;52.614;13.500;2023-06-14T19:08:01;6.63;;;2.97;;
13834;SDS011;6988;52.614;13.500;2023-06-14T19:12:53;4.33;;;2.90;;
13834;SDS011;6988;52.614;13.500;2023-06-14T19:17:54;4.83;;;2.93;;
13834;SDS011;6988;52.614;13.500;2023-06-14T19:22:48;5.63;;;2.73;;
13834;SDS011;6988;52.614;13.500;2023-06-14T19:27:40;6.97;;;3.20;;
13834;SDS011;6988;52.614;13.500;2023-06-14T19:32:32;4.53;;;2.80;;
13834;SDS011;6988;52.614;13.500;2023-06-14T19:37:25;7.00;;;3.13;;
13834;SDS011;6988;52.614;13.500;2023-06-14T19:42:18;5.30;;;2.63;;
13834;SDS011;6988;52.614;13.500;2023-06-14T19:47:10;3.43;;;2.87;;
13834;SDS011;6988;52.614;13.500;2023-06-14T19:52:02;3.03;;;2.50;;
13834;SDS011;6988;52.614;13.500;2023-06-14T19:56:54;3.03;;;2.50;;
13834;SDS011;6988;52.614;13.500;2023-06-14T20:01:47;4.07;;;2.73;;
13834;SDS011;6988;52.614;13.500;2023-06-14T20:06:39;6.53;;;3.13;;
13834;SDS011;6988;52.614;13.500;2023-06-14T20:11:31;5.60;;;3.00;;
13834;SDS011;6988;52.614;13.500;2023-06-14T20:16:22;6.97;;;3.30;;
13834;SDS011;6988;52.614;13.500;2023-06-14T20:21:16;6.17;;;2.73;;
13834;SDS011;6988;52.614;13.500;2023-06-14T20:26:08;3.70;;;2.80;;
13834;SDS011;6988;52.614;13.500;2023-06-14T20:31:02;6.93;;;3.07;;
13834;SDS011;6988;52.614;13.500;2023-06-14T20:35:54;4.47;;;3.00;;
13834;SDS011;6988;52.614;13.500;2023-06-14T20:40:48;4.30;;;3.00;;
13834;SDS011;6988;52.614;13.500;2023-06-14T20:45:42;5.50;;;2.57;;
13834;SDS011;6988;52.614;13.500;2023-06-14T20:50:34;6.20;;;2.80;;
13834;SDS011;6988;52.614;13.500;2023-06-14T20:55:26;6.40;;;3.20;;
13834;SDS011;6988;52.614;13.500;2023-06-14T21:00:20;5.30;;;3.00;;
13834;SDS011;6988;52.614;13.500;2023-06-14T21:05:12;6.40;;;2.93;;
13834;SDS011;6988;52.614;13.500;2023-06-14T21:10:04;5.57;;;2.90;;
13834;SDS011;6988;52.614;13.500;2023-06-14T21:14:57;4.93;;;3.50;;
13834;SDS011;6988;52.614;13.500;2023-06-14T21:19:50;6.37;;;3.23;;
13834;SDS011;6988;52.614;13.500;2023-06-14T21:24:41;4.07;;;3.03;;
13834;SDS011;6988;52.614;13.500;2023-06-14T21:29:33;7.77;;;3.33;;
13834;SDS011;6988;52.614;13.500;2023-06-14T21:34:25;6.23;;;3.50;;
13834;SDS011;6988;52.614;13.500;2023-06-14T21:39:19;4.77;;;2.93;;
13834;SDS011;6988;52.614;13.500;2023-06-14T21:44:11;7.10;;;3.13;;
13834;SDS011;6988;52.614;13.500;2023-06-14T22:04:00;6.23;;;3.07;;
13834;SDS011;6988;52.614;13.500;2023-06-14T22:08:52;5.80;;;3.10;;
13834;SDS011;6988;52.614;13.500;2023-06-14T22:13:43;6.53;;;3.47;;
13834;SDS011;6988;52.614;13.500;2023-06-14T22:18:37;7.43;;;3.20;;
13834;SDS011;6988;52.614;13.500;2023-06-14T22:23:31;5.30;;;3.10;;
13834;SDS011;6988;52.614;13.500;2023-06-14T22:28:26;4.20;;;3.30;;
13834;SDS011;6988;52.614;13.500;2023-06-14T22:33:28;4.37;;;3.30;;
13834;SDS011;6988;52.614;13.500;2023-06-14T22:38:20;6.03;;;3.27;;
13834;SDS011;6988;52.614;13.500;2023-06-14T22:43:13;5.90;;;3.50;;
13834;SDS011;6988;52.614;13.500;2023-06-14T22:48:06;6.47;;;3.40;;
13834;SDS011;6988;52.614;13.500;2023-06-14T22:52:58;6.90;;;3.40;;
13834;SDS011;6988;52.614;13.500;2023-06-14T22:57:54;4.97;;;3.13;;
13834;SDS011;6988;52.614;13.500;2023-06-14T23:02:48;5.73;;;3.00;;
13834;SDS011;6988;52.614;13.500;2023-06-14T23:07:40;4.67;;;3.30;;
13834;SDS011;6988;52.614;13.500;2023-06-14T23:12:32;6.23;;;3.60;;
13834;SDS011;6988;52.614;13.500;2023-06-14T23:17:25;5.10;;;3.20;;
13834;SDS011;6988;52.614;13.500;2023-06-14T23:22:22;3.83;;;3.27;;
13834;SDS011;6988;52.614;13.500;2023-06-14T23:27:17;6.57;;;2.97;;
13834;SDS011;6988;52.614;13.500;2023-06-14T23:32:13;5.33;;;3.40;;
13834;SDS011;6988;52.614;13.500;2023-06-14T23:37:06;5.13;;;3.10;;
13834;SDS011;6988;52.614;13.500;2023-06-14T23:41:59;5.90;;;3.20;;
13834;SDS011;6988;52.614;13.500;2023-06-14T23:46:51;6.50;;;3.60;;
13834;SDS011;6988;52.614;13.500;2023-06-14T23:51:46;5.67;;;2.90;;
13834;SDS011;6988;52.614;13.500;2023-06-14T23:56:38;5.77;;;2.90;;
